Latest Coastal Weather Observations for Charles Point

IDD60701

Issued at 1:01 am CST Tuesday 23 December 2014 (issued every 10 minutes, with the page automatically refreshed every 10 minutes)

About coastal observations | Map of coastal stations | Coastal observations for NT | Marine services | Other Formats
Station Details ID: 014031 Name: CHARLES POINT Lat: -12.39 Lon: 130.63 Height: 14.0 m
Data from the previous 72 hours. | See also: Recent months for locations in Northern Territory
Date/Time
CST
Temp

°C
Wind Pressure Rain
since 9am
mm
Weather Cloud Vis
km
Sea
Height
m
Swell
Dir
 
Speed
knots
Gust
knots
hPa Trend Height
m
Period
s
Dir
23/01:00am 28.4 W 2 3 1007.7 - 0.4 - - - - - - -
23/12:30am 27.8 W 2 5 1007.8 - 0.4 - - - - - - -
23/12:00am 27.8 WSW 2 3 1008.1 - 0.4 - - - - - - -
 
Date/Time
CST
Temp

°C
Wind Pressure Rain
since 9am
mm
Weather Cloud Vis
km
Sea
Height
m
Swell
Dir
 
Speed
knots
Gust
knots
hPa Trend Height
m
Period
s
Dir
22/11:30pm 28.2 W 2 3 1008.0 - 0.4 - - - - - - -
22/11:00pm 28.3 WNW 2 3 1007.9 - 0.4 - - - - - - -
22/10:30pm 28.7 W 2 3 1007.7 - 0.4 - - - - - - -
22/10:00pm 29.0 W 2 4 1007.7 - 0.4 - - - - - - -
22/09:30pm 28.6 W 2 5 1007.6 - 0.4 - - - - - - -
22/09:00pm 29.1 W 2 4 1007.4 - 0.4 - - - - - - -
22/08:30pm 29.4 W 3 4 1007.2 - 0.4 - - - - - - -
22/08:00pm 29.7 W 3 5 1006.8 - 0.4 - - - - - - -
22/07:30pm 29.9 W 4 8 1006.4 - 0.4 - - - - - - -
22/07:00pm 30.5 WNW 6 8 1006.1 - 0.4 - - - - - - -
22/06:30pm 31.1 NW 7 9 1005.8 - 0.4 - - - - - - -
22/06:00pm 31.6 NNW 8 12 1005.6 - 0.4 - - - - - - -
22/05:30pm 32.0 NNW 7 9 1005.2 - 0.4 - - - - - - -
22/05:00pm 32.2 NNW 5 7 1005.1 - 0.4 - - - - - - -
22/04:30pm 32.4 NNW 3 5 1005.6 - 0.4 - - - - - - -
22/04:00pm 32.7 NW 4 5 1006.1 - 0.4 - - - - - - -
22/03:30pm 32.6 NW 4 5 1006.3 - 0.4 - - - - - - -
22/03:00pm 32.1 NNW 4 6 1006.5 - 0.4 - - - - - - -
22/02:30pm 31.3 N 5 7 1007.0 - 0.4 - - - - - - -
22/02:00pm 31.2 N 4 5 1007.3 - 0.4 - - - - - - -
22/01:30pm 31.0 N 5 6 1007.9 - 0.4 - - - - - - -
22/01:00pm 30.6 N 5 8 1008.3 - 0.4 - - - - - - -
22/12:30pm 30.5 N 3 5 1008.5 - 0.4 - - - - - - -
22/12:00pm 30.5 NNE 3 5 1008.7 - 0.4 - - - - - - -
22/11:30am 29.9 NE 3 5 1009.0 - 0.4 - - - - - - -
22/11:00am 29.2 ENE 3 5 1009.3 - 0.4 - - - - - - -
22/10:30am 27.1 SE 2 3 1009.4 - 0.4 - - - - - - -
22/10:00am 26.4 ESE 3 6 1009.4 - 0.4 - - - - - - -
22/09:30am 24.4 SSE 4 6 1009.1 - 0.0 - - - - - - -
22/09:00am 23.9 SSW 2 2 1009.2 - 18.4 Recent precip. - - - - - -
22/08:30am 23.8 WNW 4 7 1009.5 - 18.0 - - - - - - -
22/08:00am 24.4 E 10 27 1010.2 - 7.8 - - - - - - -
22/07:59am 24.6 E 10 27 1010.1 - 6.4 - - - - - - -
22/07:30am 26.9 SE 5 13 1008.6 - 0.0 - - - - - - -
22/07:00am 27.3 SE 2 3 1007.9 - 0.0 - - - - - - -
22/06:30am 26.9 S 2 3 1007.7 - 0.0 - - - - - - -
22/06:00am 27.1 S 2 3 1007.5 - 0.0 - - - - - - -
22/05:30am 27.1 WSW 1 3 1007.1 - 0.0 - - - - - - -
22/05:00am 27.3 CALM 0 0 1006.9 - 0.0 - - - - - - -
22/04:30am 27.4 CALM 0 0 1006.8 - 0.0 - - - - - - -
22/04:00am 27.6 CALM 0 0 1006.8 - 0.0 - - - - - - -
22/03:30am 27.7 WSW 1 1 1006.9 - 0.0 - - - - - - -
22/03:00am 27.9 WSW 2 2 1006.8 - 0.0 - - - - - - -
22/02:30am 28.3 W 1 2 1006.8 - 0.0 - - - - - - -
22/02:00am 28.8 W 2 3 1006.9 - 0.0 - - - - - - -
22/01:30am 28.7 W 2 3 1007.3 - 0.0 - - - - - - -
22/01:00am 28.9 WSW 2 3 1007.3 - 0.0 - - - - - - -
22/12:30am 29.0 W 2 4 1007.5 - 0.0 - - - - - - -
22/12:00am 29.1 W 2 4 1007.8 - 0.0 - - - - - - -
 
Date/Time
CST
Temp

°C
Wind Pressure Rain
since 9am
mm
Weather Cloud Vis
km
Sea
Height
m
Swell
Dir
 
Speed
knots
Gust
knots
hPa Trend Height
m
Period
s
Dir
21/11:30pm 29.4 W 3 5 1008.0 - 0.0 - - - - - - -
21/11:00pm 29.8 WNW 5 8 1007.7 - 0.0 - - - - - - -
21/10:30pm 30.0 NW 7 9 1007.7 - 0.0 - - - - - - -
21/10:00pm 30.0 NW 7 10 1007.7 - 0.0 - - - - - - -
21/09:30pm 30.1 NW 6 10 1007.5 - 0.0 - - - - - - -
21/09:00pm 30.1 NNW 8 11 1007.0 - 0.0 - - - - - - -
21/08:30pm 30.1 NNW 9 13 1006.8 - 0.0 - - - - - - -
21/08:00pm 29.5 W 2 3 1006.2 - 0.0 - - - - - - -
21/07:30pm 30.1 WNW 1 1 1005.7 - 0.0 - - - - - - -
21/07:00pm 31.4 NNW 1 2 1005.7 - 0.0 - - - - - - -
21/06:30pm 32.1 NNW 2 3 1004.9 - 0.0 - - - - - - -
21/06:00pm 32.5 NW 1 2 1004.7 - 0.0 - - - - - - -
21/05:30pm 32.8 NNW 3 5 1004.6 - 0.0 - - - - - - -
21/05:00pm 32.2 NNW 2 3 1004.7 - 0.0 - - - - - - -
21/04:30pm 32.1 N 4 6 1004.9 - 0.0 - - - - - - -
21/04:00pm 32.2 N 4 6 1005.2 - 0.0 - - - - - - -
21/03:30pm 31.8 N 4 6 1005.6 - 0.0 - - - - - - -
21/03:00pm 31.6 N 5 6 1006.0 - 0.0 - - - - - - -
21/02:30pm 31.5 N 4 6 1006.4 - 0.0 - - - - - - -
21/02:00pm 31.5 N 5 7 1006.7 - 0.0 - - - - - - -
21/01:30pm 31.5 NNE 5 7 1007.3 - 0.0 - - - - - - -
21/01:00pm 31.7 NNE 4 7 1007.7 - 0.0 - - - - - - -
21/12:30pm 31.5 NNE 5 7 1008.1 - 0.0 - - - - - - -
21/12:00pm 32.1 ENE 4 6 1008.7 - 0.0 - - - - - - -
21/11:30am 32.1 ENE 6 9 1009.2 - 0.0 - - - - - - -
21/11:00am 32.1 ENE 6 9 1009.6 - 0.0 - - - - - - -
21/10:30am 32.1 E 5 8 1009.6 - 0.0 - - - - - - -
21/10:00am 31.3 ENE 4 7 1009.8 - 0.0 - - - - - - -
21/09:30am 31.2 ESE 4 6 1009.8 - 0.0 - - - - - - -
21/09:00am 30.6 SE 3 4 1009.9 - 0.4 - - - - - - -
21/08:30am 30.4 WSW 1 2 1009.3 - 0.4 - - - - - - -
21/08:00am 29.5 W 1 1 1008.9 - 0.4 - - - - - - -
21/07:30am 28.7 W 1 3 1008.2 - 0.4 - - - - - - -
21/07:00am 27.6 W 2 2 1008.0 - 0.4 - - - - - - -
21/06:30am 27.7 W 1 2 1007.7 - 0.4 - - - - - - -
21/06:00am 27.8 CALM 0 1 1007.4 - 0.4 - - - - - - -
21/05:30am 27.7 W 1 2 1007.3 - 0.4 - - - - - - -
21/05:00am 28.2 W 2 4 1006.9 - 0.4 - - - - - - -
21/04:30am 28.5 WSW 2 3 1006.7 - 0.4 - - - - - - -
21/04:00am 28.5 WSW 1 3 1006.6 - 0.4 - - - - - - -
21/03:30am 28.9 W 3 5 1006.5 - 0.4 - - - - - - -
21/03:00am 28.9 WSW 2 5 1006.5 - 0.4 Recent precip. - - - - - -
21/02:30am 28.9 WSW 2 5 1006.7 - 0.2 - - - - - - -
21/02:00am 28.9 WSW 2 3 1007.2 - 0.2 - - - - - - -
21/01:30am 28.9 WSW 2 4 1007.5 - 0.2 - - - - - - -
21/01:00am 28.9 W 3 5 1008.0 - 0.2 - - - - - - -
21/12:30am 29.6 W 3 5 1008.4 - 0.2 - - - - - - -
21/12:00am 30.2 W 5 8 1008.5 - 0.2 - - - - - - -
 
Date/Time
CST
Temp

°C
Wind Pressure Rain
since 9am
mm
Weather Cloud Vis
km
Sea
Height
m
Swell
Dir
 
Speed
knots
Gust
knots
hPa Trend Height
m
Period
s
Dir
20/11:30pm 30.1 W 5 9 1008.8 - 0.2 - - - - - - -
20/11:00pm 30.1 W 5 7 1008.7 - 0.2 - - - - - - -
20/10:30pm 30.2 W 6 10 1008.5 - 0.2 - - - - - - -
20/10:00pm 30.5 WNW 7 9 1008.2 - 0.2 - - - - - - -
20/09:30pm 30.6 WNW 6 8 1007.8 - 0.2 - - - - - - -
20/09:00pm 30.7 WNW 6 8 1007.6 - 0.2 - - - - - - -
20/08:30pm 30.5 WNW 4 6 1006.9 - 0.2 - - - - - - -
20/08:00pm 31.5 NW 4 7 1006.6 - 0.2 - - - - - - -
20/07:30pm 31.9 NNW 3 4 1005.9 - 0.2 - - - - - - -
20/07:00pm 31.8 N 6 6 1005.5 - 0.2 - - - - - - -
20/06:30pm 32.1 N 6 7 1005.4 - 0.2 - - - - - - -
20/06:00pm 32.2 NNE 6 6 1005.0 - 0.2 - - - - - - -
20/05:30pm 32.1 N 6 7 1004.8 - 0.2 - - - - - - -
20/05:00pm 31.5 NNE 6 8 1004.8 - 0.2 - - - - - - -
20/04:30pm 31.3 N 6 7 1004.9 - 0.2 - - - - - - -
20/04:00pm 31.4 NNE 5 7 1005.1 - 0.2 - - - - - - -
20/03:30pm 31.4 NE 4 6 1005.4 - 0.2 - - - - - - -
20/03:00pm 31.4 NNE 6 8 1005.9 - 0.2 - - - - - - -
20/02:30pm 31.3 NE 7 9 1006.5 - 0.2 - - - - - - -
20/02:00pm 31.4 NE 6 8 1006.8 - 0.2 - - - - - - -
20/01:30pm 31.4 NE 6 8 1007.2 - 0.2 - - - - - - -
20/01:00pm 30.6 NE 4 6 1007.6 - 0.2 - - - - - - -
20/12:30pm 30.1 NNE 4 5 1008.1 - 0.2 - - - - - - -
20/12:00pm 29.9 NNE 4 6 1008.6 - 0.2 - - - - - - -
20/11:30am 30.1 NNE 4 5 1009.1 - 0.2 - - - - - - -
20/11:00am 29.6 NE 3 5 1009.5 - 0.2 - - - - - - -
20/10:30am 28.6 NNE 2 3 1009.9 - 0.2 - - - - - - -
20/10:00am 28.6 NNE 1 3 1009.9 - 0.0 - - - - - - -
20/09:30am 27.5 S 5 8 1010.0 - 0.0 - - - - - - -
20/09:00am 26.9 S 6 8 1010.2 - 45.0 - - - - - - -
20/08:30am 26.0 S 5 8 1010.2 - 45.0 - - - - - - -
20/08:00am 25.4 S 6 9 1009.9 - 45.0 - - - - - - -
20/07:30am 25.1 S 6 9 1009.7 - 45.0 - - - - - - -
20/07:00am 24.7 SSW 5 8 1009.2 - 45.0 - - - - - - -
20/06:30am 24.8 SSW 4 7 1009.7 - 45.0 - - - - - - -
20/06:00am 24.6 SW 4 8 1009.9 - 44.2 Rain - - - - - -
20/05:30am 24.7 S 9 14 1009.2 - 41.0 - - - - - - -
20/05:00am 25.3 NE 9 16 1008.8 - 22.0 - - - - - - -
20/04:42am 28.0 NNW 8 24 1007.6 - 1.8 - - - - - - -
20/04:30am 30.5 W 4 8 1007.8 - 0.0 - - - - - - -
20/04:00am 30.4 W 4 8 1007.8 - 0.0 - - - - - - -
20/03:30am 30.6 WNW 9 11 1008.1 - 0.0 - - - - - - -
20/03:00am 30.4 WNW 9 11 1008.1 - 0.0 - - - - - - -
20/02:30am 30.3 WNW 9 12 1008.1 - 0.0 - - - - - - -
20/02:00am 30.5 WNW 9 12 1008.2 - 0.0 - - - - - - -
20/01:30am 30.3 NW 8 12 1007.9 - 0.0 - - - - - - -

Other Formats:

Comma delimited format used in spreadsheet applications
http://www.bom.gov.au/fwo/IDD60701/IDD60701.99510.axf

JavaScript Object Notation format (JSON) in row-major order
http://www.bom.gov.au/fwo/IDD60701/IDD60701.99510.json